createdAt,value
2022-11-03T00:01:29.051Z,45.60
2022-11-03T00:06:32.792Z,45.70
2022-11-03T00:11:39.272Z,45.90
2022-11-03T00:16:42.714Z,46.00
2022-11-03T00:21:46.505Z,46.10
2022-11-03T00:26:51.364Z,46.20
2022-11-03T00:31:54.887Z,46.30
2022-11-03T00:36:58.203Z,46.40
2022-11-03T00:42:02.824Z,46.50
2022-11-03T00:47:06.274Z,46.70
2022-11-03T00:52:09.543Z,46.70
2022-11-03T00:57:14.233Z,46.80
2022-11-03T01:02:17.770Z,46.90
2022-11-03T01:07:22.594Z,47.00
2022-11-03T01:12:27.183Z,47.00
2022-11-03T01:17:30.573Z,47.20
2022-11-03T01:22:33.842Z,47.20
2022-11-03T01:27:38.688Z,47.20
2022-11-03T01:32:42.059Z,47.40
2022-11-03T01:37:45.451Z,47.30
2022-11-03T01:49:16.023Z,47.60
2022-11-03T01:54:22.827Z,47.50
2022-11-03T01:59:29.014Z,47.60
2022-11-03T02:04:34.501Z,47.70
2022-11-03T02:09:37.775Z,47.60
2022-11-03T02:14:46.349Z,47.60
2022-11-03T02:19:54.652Z,47.80
2022-11-03T02:25:04.260Z,47.80
2022-11-03T02:30:10.562Z,47.90
2022-11-03T02:42:00.306Z,48.10
2022-11-03T02:47:09.225Z,47.90
2022-11-03T02:52:38.607Z,48.10
2022-11-03T02:57:47.848Z,48.20
2022-11-03T03:02:58.796Z,48.20
2022-11-03T03:08:05.083Z,48.20
2022-11-03T03:13:09.752Z,48.30
2022-11-03T03:18:23.134Z,48.30
2022-11-03T03:23:30.778Z,48.60
2022-11-03T03:28:38.358Z,48.50
2022-11-03T03:33:47.776Z,48.60
2022-11-03T03:38:56.593Z,48.80
2022-11-03T03:44:03.680Z,48.80
2022-11-03T03:49:08.838Z,48.90
2022-11-03T03:54:12.272Z,48.90
2022-11-03T03:59:16.986Z,48.80
2022-11-03T04:04:21.810Z,48.80
2022-11-03T04:09:25.446Z,49.00
2022-11-03T04:14:45.823Z,48.90
2022-11-03T04:20:10.527Z,49.00
2022-11-03T04:25:13.848Z,49.00
2022-11-03T04:30:20.343Z,48.90
2022-11-03T04:35:26.595Z,49.00
2022-11-03T04:40:30.419Z,49.10
2022-11-03T04:45:34.949Z,49.00
2022-11-03T04:50:42.870Z,49.10
2022-11-03T04:55:52.951Z,49.20
2022-11-03T05:00:58.921Z,49.20
2022-11-03T05:06:12.509Z,49.20
2022-11-03T05:11:22.403Z,49.40
2022-11-03T05:16:25.704Z,49.40
2022-11-03T05:21:30.602Z,49.30
2022-11-03T05:26:35.887Z,49.40
2022-11-03T05:31:42.829Z,49.50
2022-11-03T05:36:47.496Z,49.60
2022-11-03T05:41:51.119Z,49.50
2022-11-03T05:46:54.640Z,49.50
2022-11-03T05:51:59.249Z,49.60
2022-11-03T05:57:02.907Z,49.70
2022-11-03T06:02:19.944Z,49.70
2022-11-03T06:07:27.516Z,49.80
2022-11-03T06:12:32.155Z,49.80
2022-11-03T06:17:37.003Z,49.90
2022-11-03T06:22:41.941Z,49.90
2022-11-03T06:27:45.269Z,50.10
2022-11-03T06:32:48.727Z,50.10
2022-11-03T06:37:53.945Z,51.90
2022-11-03T06:42:58.595Z,51.60
2022-11-03T06:48:03.352Z,51.00
2022-11-03T06:53:10.608Z,51.30
2022-11-03T06:58:18.132Z,50.20
2022-11-03T07:03:26.866Z,50.60
2022-11-03T07:08:36.444Z,54.70
2022-11-03T07:13:39.805Z,55.80
2022-11-03T07:18:44.247Z,55.80
2022-11-03T07:23:49.100Z,55.50
2022-11-03T07:28:52.892Z,54.90
2022-11-03T07:33:59.376Z,53.20
2022-11-03T07:39:04.112Z,50.50
2022-11-03T07:44:11.878Z,48.90
2022-11-03T07:49:24.317Z,47.70
2022-11-03T07:54:31.808Z,46.10
2022-11-03T07:59:40.441Z,45.80
2022-11-03T08:04:43.856Z,45.70
2022-11-03T08:09:48.601Z,45.70
2022-11-03T08:14:51.944Z,45.60
2022-11-03T08:19:55.286Z,45.70
2022-11-03T08:24:59.910Z,45.80
2022-11-03T08:30:03.230Z,45.80
2022-11-03T08:35:07.488Z,46.10
2022-11-03T08:40:13.928Z,46.30
2022-11-03T08:45:17.838Z,46.20
2022-11-03T08:50:21.269Z,46.50
2022-11-03T08:55:26.201Z,46.60
2022-11-03T09:00:29.493Z,46.70
2022-11-03T09:05:32.850Z,46.90
2022-11-03T09:10:42.196Z,47.00
2022-11-03T09:15:45.798Z,47.00
2022-11-03T09:20:49.216Z,47.20
2022-11-03T09:25:53.864Z,47.20
2022-11-03T09:30:57.147Z,47.10
2022-11-03T09:36:01.694Z,47.30
2022-11-03T09:41:18.646Z,47.30
2022-11-03T09:46:31.406Z,47.20
2022-11-03T09:51:36.868Z,47.40
2022-11-03T09:56:41.759Z,47.30
2022-11-03T10:01:48.862Z,47.30
2022-11-03T10:06:52.358Z,47.20
2022-11-03T10:11:57.350Z,47.20
2022-11-03T10:17:01.608Z,47.00
2022-11-03T10:22:04.883Z,47.00
2022-11-03T10:27:21.999Z,46.80
2022-11-03T10:32:34.292Z,45.90
2022-11-03T10:37:39.123Z,46.10
2022-11-03T10:43:00.030Z,46.70
2022-11-03T10:48:06.993Z,47.50
2022-11-03T10:53:18.688Z,46.60
2022-11-03T10:58:23.566Z,45.50
2022-11-03T11:03:26.840Z,45.80
2022-11-03T11:08:30.301Z,45.70
2022-11-03T11:13:35.085Z,45.60
2022-11-03T11:19:12.756Z,45.30
2022-11-03T11:24:36.300Z,44.90
2022-11-03T11:29:40.940Z,45.30
2022-11-03T11:34:44.234Z,45.20
2022-11-03T11:39:47.498Z,45.40
2022-11-03T11:44:58.074Z,45.30
2022-11-03T11:50:17.753Z,45.10
2022-11-03T12:01:50.797Z,44.80
2022-11-03T12:06:55.529Z,44.80
2022-11-03T12:12:05.008Z,45.20
2022-11-03T12:17:37.516Z,45.30
2022-11-03T12:22:41.795Z,44.50
2022-11-03T12:27:45.287Z,45.00
2022-11-03T12:32:51.846Z,44.90
2022-11-03T12:37:55.094Z,44.80
2022-11-03T12:42:58.368Z,44.70
2022-11-03T12:48:03.414Z,44.50
2022-11-03T12:53:08.255Z,44.40
2022-11-03T12:58:12.063Z,44.60
2022-11-03T13:03:16.742Z,44.50
2022-11-03T13:08:20.339Z,44.40
2022-11-03T13:13:23.671Z,44.60
2022-11-03T13:18:28.297Z,44.60
2022-11-03T13:23:31.540Z,44.50
2022-11-03T13:28:34.816Z,44.50
2022-11-03T13:33:39.557Z,44.40
2022-11-03T13:38:42.811Z,44.30
2022-11-03T13:43:46.172Z,44.30
2022-11-03T13:59:37.280Z,44.30
2022-11-03T14:04:42.508Z,44.20
2022-11-03T14:09:47.076Z,44.20
2022-11-03T14:14:50.386Z,44.30
2022-11-03T14:20:00.732Z,44.30
2022-11-03T14:25:09.081Z,44.20
2022-11-03T14:30:13.779Z,44.40
2022-11-03T14:35:18.806Z,44.30
2022-11-03T14:40:41.598Z,44.40
2022-11-03T14:45:45.124Z,44.50
2022-11-03T14:50:49.780Z,44.40
2022-11-03T14:55:53.029Z,44.40
2022-11-03T15:00:56.344Z,44.50
2022-11-03T15:06:01.036Z,44.50
2022-11-03T15:11:05.364Z,44.50
2022-11-03T15:16:09.117Z,44.50
2022-11-03T15:21:13.946Z,44.50
2022-11-03T15:26:17.393Z,44.50
2022-11-03T15:31:20.817Z,44.60
2022-11-03T15:36:25.538Z,44.70
2022-11-03T15:41:28.774Z,44.70
2022-11-03T15:46:32.151Z,45.40
2022-11-03T15:51:36.923Z,44.80
2022-11-03T15:56:40.281Z,44.80
2022-11-03T16:01:43.902Z,44.80
2022-11-03T16:12:12.519Z,44.70
2022-11-03T16:17:15.914Z,44.70
2022-11-03T16:22:20.630Z,44.70
2022-11-03T16:27:24.145Z,44.80
2022-11-03T16:32:28.250Z,44.90
2022-11-03T16:37:33.512Z,44.90
2022-11-03T16:42:38.727Z,44.90
2022-11-03T16:47:42.620Z,45.00
2022-11-03T16:52:48.756Z,45.10
2022-11-03T16:57:52.303Z,45.20
2022-11-03T17:02:56.115Z,45.20
2022-11-03T17:08:02.166Z,45.30
2022-11-03T17:13:10.041Z,45.50
2022-11-03T17:18:14.603Z,45.60
2022-11-03T17:23:19.722Z,45.70
2022-11-03T17:28:23.409Z,45.80
2022-11-03T17:33:27.729Z,45.90
2022-11-03T17:38:33.949Z,45.90
2022-11-03T17:43:41.545Z,46.10
2022-11-03T17:48:45.045Z,46.20
2022-11-03T17:53:51.472Z,46.20
2022-11-03T17:58:56.296Z,46.30
2022-11-03T18:04:00.656Z,46.30
2022-11-03T18:09:07.040Z,46.40
2022-11-03T18:14:11.919Z,46.60
2022-11-03T18:19:17.919Z,46.50
2022-11-03T18:24:23.740Z,46.90
2022-11-03T18:29:28.690Z,46.80
2022-11-03T18:34:35.009Z,46.90
2022-11-03T18:39:42.376Z,46.90
2022-11-03T18:44:47.070Z,46.90
2022-11-03T18:49:52.144Z,46.90
2022-11-03T18:54:58.001Z,46.90
2022-11-03T19:00:02.966Z,46.90
2022-11-03T19:05:13.566Z,47.00
2022-11-03T19:10:22.830Z,47.00
2022-11-03T19:15:28.604Z,47.20
2022-11-03T19:26:58.482Z,47.30
2022-11-03T19:32:03.871Z,47.50
2022-11-03T19:37:09.411Z,47.40
2022-11-03T19:42:29.051Z,47.50
2022-11-03T19:47:36.083Z,47.70
2022-11-03T19:52:40.806Z,47.70
2022-11-03T19:57:48.008Z,47.80
2022-11-03T20:09:38.170Z,48.30
2022-11-03T20:14:48.401Z,48.00
2022-11-03T20:19:55.024Z,48.20
2022-11-03T20:25:05.889Z,48.20
2022-11-03T20:30:17.193Z,48.30
2022-11-03T20:35:25.099Z,48.50
2022-11-03T20:40:33.363Z,48.40
2022-11-03T20:45:39.602Z,48.30
2022-11-03T20:50:43.836Z,48.50
2022-11-03T20:55:48.071Z,48.40
2022-11-03T21:00:53.703Z,48.40
2022-11-03T21:05:57.587Z,48.40
2022-11-03T21:11:23.662Z,48.30
2022-11-03T21:29:03.548Z,48.40
2022-11-03T21:34:08.301Z,48.40
2022-11-03T21:39:12.140Z,48.60
2022-11-03T21:44:18.580Z,48.50
2022-11-03T21:49:40.477Z,48.70
2022-11-03T21:54:44.190Z,48.80
2022-11-03T21:59:47.545Z,48.80
2022-11-03T22:04:54.718Z,48.90
2022-11-03T22:09:58.075Z,49.00
2022-11-03T22:15:18.739Z,49.00
2022-11-03T22:20:40.767Z,49.10
2022-11-03T22:26:01.259Z,49.10
2022-11-03T22:31:25.065Z,49.10
2022-11-03T22:36:29.700Z,49.20
2022-11-03T22:41:50.348Z,49.30
2022-11-03T22:46:53.988Z,49.30
2022-11-03T22:51:58.638Z,49.40
2022-11-03T22:57:01.912Z,49.50
2022-11-03T23:08:22.905Z,49.50
2022-11-03T23:13:26.191Z,49.60
2022-11-03T23:18:46.733Z,49.60
2022-11-03T23:24:08.946Z,49.70
2022-11-03T23:29:13.088Z,49.80
2022-11-03T23:34:16.505Z,49.90
2022-11-03T23:39:22.550Z,50.00
2022-11-03T23:44:45.848Z,50.20
2022-11-03T23:49:49.126Z,50.20
2022-11-03T23:54:53.794Z,50.10
2022-11-03T23:59:57.300Z,50.30
